sensor_id;sensor_type;location;lat;lon;timestamp;pressure;altitude;pressure_sealevel;temperature;humidity
48644;BME280;34928;37.302;-121.984;2023-04-01T00:00:47;101672.0;;;26.15;20.45
48644;BME280;34928;37.302;-121.984;2023-04-01T00:10:53;101661.0;;;26.03;20.33
48644;BME280;34928;37.302;-121.984;2023-04-01T00:20:57;101668.0;;;25.80;20.28
48644;BME280;34928;37.302;-121.984;2023-04-01T00:31:05;101671.0;;;26.32;20.05
48644;BME280;34928;37.302;-121.984;2023-04-01T00:41:14;101667.0;;;25.72;20.20
48644;BME280;34928;37.302;-121.984;2023-04-01T00:51:20;101669.0;;;25.82;20.12
48644;BME280;34928;37.302;-121.984;2023-04-01T01:01:28;101675.0;;;25.51;20.10
48644;BME280;34928;37.302;-121.984;2023-04-01T01:11:37;101671.0;;;26.79;20.07
48644;BME280;34928;37.302;-121.984;2023-04-01T01:21:51;101670.0;;;26.95;20.07
48644;BME280;34928;37.302;-121.984;2023-04-01T01:32:11;101676.0;;;27.02;20.23
48644;BME280;34928;37.302;-121.984;2023-04-01T01:42:24;101668.0;;;27.11;20.30
48644;BME280;34928;37.302;-121.984;2023-04-01T01:52:32;101667.0;;;27.09;20.31
48644;BME280;34928;37.302;-121.984;2023-04-01T02:02:37;101673.0;;;26.95;20.40
48644;BME280;34928;37.302;-121.984;2023-04-01T02:12:45;101681.0;;;26.95;20.36
48644;BME280;34928;37.302;-121.984;2023-04-01T02:22:55;101677.0;;;27.17;20.31
48644;BME280;34928;37.302;-121.984;2023-04-01T02:33:03;101685.0;;;26.99;20.25
48644;BME280;34928;37.302;-121.984;2023-04-01T02:43:07;101687.0;;;26.93;20.25
48644;BME280;34928;37.302;-121.984;2023-04-01T02:53:12;101694.0;;;26.88;20.27
48644;BME280;34928;37.302;-121.984;2023-04-01T03:03:17;101701.0;;;26.75;20.25
48644;BME280;34928;37.302;-121.984;2023-04-01T03:13:22;101710.0;;;26.76;20.20
48644;BME280;34928;37.302;-121.984;2023-04-01T03:23:27;101721.0;;;27.03;20.15
48644;BME280;34928;37.302;-121.984;2023-04-01T03:33:33;101731.0;;;26.67;20.16
48644;BME280;34928;37.302;-121.984;2023-04-01T03:43:37;101742.0;;;26.63;20.15
48644;BME280;34928;37.302;-121.984;2023-04-01T03:53:42;101757.0;;;26.89;20.12
48644;BME280;34928;37.302;-121.984;2023-04-01T04:03:48;101767.0;;;26.88;20.09
48644;BME280;34928;37.302;-121.984;2023-04-01T04:13:52;101788.0;;;26.89;20.03
48644;BME280;34928;37.302;-121.984;2023-04-01T04:23:59;101792.0;;;25.98;20.35
48644;BME280;34928;37.302;-121.984;2023-04-01T04:34:02;101798.0;;;26.73;20.20
48644;BME280;34928;37.302;-121.984;2023-04-01T04:44:08;101803.0;;;26.81;20.45
48644;BME280;34928;37.302;-121.984;2023-04-01T04:54:12;101807.0;;;26.65;20.78
48644;BME280;34928;37.302;-121.984;2023-04-01T05:04:17;101810.0;;;27.10;20.76
48644;BME280;34928;37.302;-121.984;2023-04-01T05:14:22;101809.0;;;26.56;20.79
48644;BME280;34928;37.302;-121.984;2023-04-01T05:24:27;101808.0;;;26.72;20.82
48644;BME280;34928;37.302;-121.984;2023-04-01T05:34:32;101817.0;;;26.34;20.82
48644;BME280;34928;37.302;-121.984;2023-04-01T05:44:38;101819.0;;;26.79;20.88
48644;BME280;34928;37.302;-121.984;2023-04-01T05:54:42;101819.0;;;26.29;20.87
48644;BME280;34928;37.302;-121.984;2023-04-01T06:04:47;101815.0;;;26.49;20.96
48644;BME280;34928;37.302;-121.984;2023-04-01T06:14:56;101802.0;;;25.97;21.29
48644;BME280;34928;37.302;-121.984;2023-04-01T06:25:16;101789.0;;;26.57;21.10
48644;BME280;34928;37.302;-121.984;2023-04-01T06:35:32;101781.0;;;26.33;21.34
48644;BME280;34928;37.302;-121.984;2023-04-01T06:45:47;101788.0;;;26.42;20.92
48644;BME280;34928;37.302;-121.984;2023-04-01T06:55:56;101789.0;;;26.02;21.05
48644;BME280;34928;37.302;-121.984;2023-04-01T07:06:04;101802.0;;;26.67;20.83
48644;BME280;34928;37.302;-121.984;2023-04-01T07:16:12;101786.0;;;26.25;20.98
48644;BME280;34928;37.302;-121.984;2023-04-01T07:26:20;101788.0;;;26.61;20.74
48644;BME280;34928;37.302;-121.984;2023-04-01T07:36:32;101795.0;;;26.22;20.78
48644;BME280;34928;37.302;-121.984;2023-04-01T07:46:50;101804.0;;;26.51;20.47
48644;BME280;34928;37.302;-121.984;2023-04-01T07:57:03;101802.0;;;25.85;20.56
48644;BME280;34928;37.302;-121.984;2023-04-01T08:07:16;101796.0;;;26.78;20.40
48644;BME280;34928;37.302;-121.984;2023-04-01T08:17:28;101790.0;;;26.67;20.35
48644;BME280;34928;37.302;-121.984;2023-04-01T08:27:39;101792.0;;;26.75;20.40
48644;BME280;34928;37.302;-121.984;2023-04-01T08:37:49;101798.0;;;26.71;20.39
48644;BME280;34928;37.302;-121.984;2023-04-01T09:08:41;101782.0;;;26.45;20.40
48644;BME280;34928;37.302;-121.984;2023-04-01T09:19:07;101779.0;;;26.31;20.79
48644;BME280;34928;37.302;-121.984;2023-04-01T09:29:32;101761.0;;;26.26;20.68
48644;BME280;34928;37.302;-121.984;2023-04-01T09:39:53;101753.0;;;26.09;20.76
48644;BME280;34928;37.302;-121.984;2023-04-01T10:00:39;101742.0;;;25.81;20.83
48644;BME280;34928;37.302;-121.984;2023-04-01T10:11:08;101738.0;;;25.83;20.92
48644;BME280;34928;37.302;-121.984;2023-04-01T10:53:12;101720.0;;;25.43;20.95
48644;BME280;34928;37.302;-121.984;2023-04-01T11:14:11;101723.0;;;25.16;21.02
48644;BME280;34928;37.302;-121.984;2023-04-01T11:24:28;101731.0;;;25.17;21.09
48644;BME280;34928;37.302;-121.984;2023-04-01T11:34:56;101732.0;;;24.61;21.08
48644;BME280;34928;37.302;-121.984;2023-04-01T11:45:16;101722.0;;;25.00;21.13
48644;BME280;34928;37.302;-121.984;2023-04-01T11:55:32;101710.0;;;24.90;21.09
48644;BME280;34928;37.302;-121.984;2023-04-01T12:05:46;101712.0;;;24.73;21.20
48644;BME280;34928;37.302;-121.984;2023-04-01T12:16:11;101703.0;;;24.51;21.26
48644;BME280;34928;37.302;-121.984;2023-04-01T12:37:02;101685.0;;;23.83;20.92
48644;BME280;34928;37.302;-121.984;2023-04-01T13:08:07;101691.0;;;25.00;20.58
48644;BME280;34928;37.302;-121.984;2023-04-01T13:18:24;101696.0;;;25.42;20.54
48644;BME280;34928;37.302;-121.984;2023-04-01T13:28:36;101707.0;;;25.74;20.51
48644;BME280;34928;37.302;-121.984;2023-04-01T13:38:57;101719.0;;;25.78;20.49
48644;BME280;34928;37.302;-121.984;2023-04-01T13:49:26;101725.0;;;26.04;20.36
48644;BME280;34928;37.302;-121.984;2023-04-01T13:59:47;101736.0;;;26.05;20.23
48644;BME280;34928;37.302;-121.984;2023-04-01T14:10:06;101742.0;;;26.57;20.03
48644;BME280;34928;37.302;-121.984;2023-04-01T14:20:26;101744.0;;;26.05;20.00
48644;BME280;34928;37.302;-121.984;2023-04-01T14:30:43;101760.0;;;27.02;19.88
48644;BME280;34928;37.302;-121.984;2023-04-01T14:40:56;101756.0;;;27.06;19.87
48644;BME280;34928;37.302;-121.984;2023-04-01T14:51:10;101768.0;;;26.96;19.82
48644;BME280;34928;37.302;-121.984;2023-04-01T15:01:32;101776.0;;;27.15;19.32
48644;BME280;34928;37.302;-121.984;2023-04-01T15:11:48;101783.0;;;27.00;19.82
48644;BME280;34928;37.302;-121.984;2023-04-01T15:22:08;101777.0;;;26.63;19.69
48644;BME280;34928;37.302;-121.984;2023-04-01T15:32:26;101786.0;;;26.31;19.66
48644;BME280;34928;37.302;-121.984;2023-04-01T15:42:48;101789.0;;;26.09;19.75
48644;BME280;34928;37.302;-121.984;2023-04-01T15:53:09;101793.0;;;25.94;19.95
48644;BME280;34928;37.302;-121.984;2023-04-01T16:03:31;101787.0;;;25.99;19.93
48644;BME280;34928;37.302;-121.984;2023-04-01T16:13:48;101789.0;;;25.79;20.03
48644;BME280;34928;37.302;-121.984;2023-04-01T16:23:59;101799.0;;;26.29;20.00
48644;BME280;34928;37.302;-121.984;2023-04-01T16:34:14;101802.0;;;26.07;19.70
48644;BME280;34928;37.302;-121.984;2023-04-01T16:44:24;101799.0;;;25.43;20.37
48644;BME280;34928;37.302;-121.984;2023-04-01T16:54:31;101790.0;;;24.94;18.66
48644;BME280;34928;37.302;-121.984;2023-04-01T17:04:45;101793.0;;;25.70;19.93
48644;BME280;34928;37.302;-121.984;2023-04-01T17:14:59;101797.0;;;25.79;20.08
48644;BME280;34928;37.302;-121.984;2023-04-01T17:25:20;101801.0;;;25.56;20.24
48644;BME280;34928;37.302;-121.984;2023-04-01T17:35:33;101792.0;;;26.34;20.19
48644;BME280;34928;37.302;-121.984;2023-04-01T17:45:41;101785.0;;;26.13;20.22
48644;BME280;34928;37.302;-121.984;2023-04-01T17:55:59;101783.0;;;25.83;19.45
48644;BME280;34928;37.302;-121.984;2023-04-01T18:06:12;101798.0;;;26.74;19.94
48644;BME280;34928;37.302;-121.984;2023-04-01T18:16:28;101799.0;;;26.47;20.26
48644;BME280;34928;37.302;-121.984;2023-04-01T18:26:34;101797.0;;;25.87;19.12
48644;BME280;34928;37.302;-121.984;2023-04-01T18:36:46;101786.0;;;24.93;18.43
48644;BME280;34928;37.302;-121.984;2023-04-01T18:46:59;101779.0;;;25.49;18.17
48644;BME280;34928;37.302;-121.984;2023-04-01T18:57:07;101770.0;;;25.59;18.38
48644;BME280;34928;37.302;-121.984;2023-04-01T19:17:57;101748.0;;;26.19;20.81
48644;BME280;34928;37.302;-121.984;2023-04-01T19:28:15;101731.0;;;26.10;21.00
48644;BME280;34928;37.302;-121.984;2023-04-01T19:38:28;101716.0;;;26.91;21.72
48644;BME280;34928;37.302;-121.984;2023-04-01T19:48:44;101715.0;;;26.65;21.55
48644;BME280;34928;37.302;-121.984;2023-04-01T19:58:56;101704.0;;;25.76;19.21
48644;BME280;34928;37.302;-121.984;2023-04-01T20:19:41;101679.0;;;26.09;18.35
48644;BME280;34928;37.302;-121.984;2023-04-01T20:29:59;101669.0;;;25.62;18.66
48644;BME280;34928;37.302;-121.984;2023-04-01T20:50:31;101664.0;;;25.87;18.66
48644;BME280;34928;37.302;-121.984;2023-04-01T21:00:45;101651.0;;;26.01;18.66
48644;BME280;34928;37.302;-121.984;2023-04-01T21:11:00;101648.0;;;26.77;19.87
48644;BME280;34928;37.302;-121.984;2023-04-01T21:21:22;101636.0;;;26.82;20.28
48644;BME280;34928;37.302;-121.984;2023-04-01T21:31:38;101621.0;;;26.96;20.22
48644;BME280;34928;37.302;-121.984;2023-04-01T21:42:03;101619.0;;;26.96;20.38
48644;BME280;34928;37.302;-121.984;2023-04-01T21:52:32;101616.0;;;27.11;20.51
48644;BME280;34928;37.302;-121.984;2023-04-01T22:13:10;101601.0;;;27.22;20.64
48644;BME280;34928;37.302;-121.984;2023-04-01T22:23:20;101587.0;;;27.23;20.79
48644;BME280;34928;37.302;-121.984;2023-04-01T22:33:34;101581.0;;;27.07;20.84
48644;BME280;34928;37.302;-121.984;2023-04-01T22:43:44;101568.0;;;27.41;20.91
48644;BME280;34928;37.302;-121.984;2023-04-01T22:53:59;101567.0;;;27.14;20.95
48644;BME280;34928;37.302;-121.984;2023-04-01T23:04:11;101557.0;;;27.39;21.06
48644;BME280;34928;37.302;-121.984;2023-04-01T23:24:35;101544.0;;;26.68;21.01
48644;BME280;34928;37.302;-121.984;2023-04-01T23:34:47;101540.0;;;26.76;20.74
48644;BME280;34928;37.302;-121.984;2023-04-01T23:44:54;101533.0;;;26.58;21.00
48644;BME280;34928;37.302;-121.984;2023-04-01T23:55:12;101525.0;;;27.34;20.98
